Terminal Aerodrome Forecast
Issued by NWS

Current Version | Previous Version | Text Only | Print | Product List | Glossary On
Versions: 1 2 3 4 5 6 7 8 9 10 11 12 13 14 15 16 17
000
FTUS43 KILX 261424 AAB
TAFBMI
TAF AMD
KBMI 261424Z 2614/2712 18010KT 6SM -TSRA BR SCT025CB BKN045
      TEMPO 2614/2615 14013G22KT 4SM TSRA BKN025CB
     FM261600 19011KT P6SM BKN050
     FM262000 21011KT P6SM VCTS SCT100CB
     FM270000 18008KT P6SM VCSH BKN110=

USA.gov is the U.S. government's official web portal to all federal, state and local government web resources and services.